Time;durP1;ratioP1;P1;durP2;ratioP2;P2;SDS_P1;SDS_P2;PMS_P1;PMS_P2;Temp;Humidity;BMP_temperature;BMP_pressure;BME280_temperature;BME280_humidity;BME280_pressure;Samples;Min_cycle;Max_cycle;Signal;HPM_P1;HPM_P2
2023/08/13 00:00:43;;;;;;;0.85;0.75;;;24.50;61.60;;;;;;6305479;22;20208;-84
2023/08/13 00:03:11;;;;;;;0.50;0.47;;;24.50;61.70;;;;;;6305799;22;20208;-82
2023/08/13 00:05:40;;;;;;;0.43;0.43;;;24.50;61.70;;;;;;6305399;22;20239;-82
2023/08/13 00:08:09;;;;;;;0.55;0.55;;;24.50;61.70;;;;;;6306178;22;20544;-84
2023/08/13 00:10:39;;;;;;;0.90;0.90;;;24.50;61.90;;;;;;6306223;22;20212;-83
2023/08/13 00:13:07;;;;;;;0.43;0.43;;;24.40;61.90;;;;;;6306716;22;20563;-83
2023/08/13 00:15:37;;;;;;;0.43;0.40;;;24.40;62.30;;;;;;6305883;22;20165;-83
2023/08/13 00:18:06;;;;;;;0.73;0.57;;;24.30;62.30;;;;;;6304976;22;20233;-84
2023/08/13 00:20:35;;;;;;;2.00;0.70;;;24.30;62.50;;;;;;6306240;22;20213;-82
2023/08/13 00:23:03;;;;;;;2.05;1.00;;;24.30;62.50;;;;;;6306716;22;20275;-82
2023/08/13 00:25:32;;;;;;;2.13;0.57;;;24.30;62.60;;;;;;6305216;22;20169;-82
2023/08/13 00:28:00;;;;;;;0.40;0.40;;;24.30;62.60;;;;;;6303728;22;20199;-83
2023/08/13 00:30:29;;;;;;;0.65;0.65;;;24.20;62.80;;;;;;6306477;22;20165;-83
2023/08/13 00:32:58;;;;;;;0.55;0.50;;;24.20;62.90;;;;;;6307706;22;20169;-84
2023/08/13 00:35:27;;;;;;;0.60;0.52;;;24.20;62.80;;;;;;6305779;22;20173;-83
2023/08/13 00:37:55;;;;;;;0.43;0.40;;;24.10;63.00;;;;;;6306000;22;20197;-83
2023/08/13 00:40:24;;;;;;;0.73;0.73;;;24.10;62.90;;;;;;6304941;22;20603;-82
2023/08/13 00:42:53;;;;;;;3.15;1.38;;;24.10;63.10;;;;;;6306062;22;20177;-83
2023/08/13 00:45:21;;;;;;;0.57;0.50;;;24.10;63.20;;;;;;6306524;22;20169;-83
2023/08/13 00:47:50;;;;;;;0.95;0.60;;;24.10;63.30;;;;;;6307234;22;20184;-82
2023/08/13 00:50:21;;;;;;;0.73;0.73;;;24.10;63.30;;;;;;6307957;22;20165;-84
2023/08/13 00:52:50;;;;;;;0.73;0.73;;;24.10;63.20;;;;;;6309359;22;20542;-82
2023/08/13 00:55:18;;;;;;;2.33;0.68;;;24.00;63.30;;;;;;6308087;22;20171;-82
2023/08/13 00:57:47;;;;;;;0.47;0.47;;;24.00;63.30;;;;;;6309031;22;20168;-84
2023/08/13 01:00:16;;;;;;;2.03;0.60;;;24.00;63.40;;;;;;6308779;22;20223;-83
2023/08/13 01:02:45;;;;;;;1.98;0.85;;;24.00;63.60;;;;;;6308525;22;20196;-84
2023/08/13 01:05:13;;;;;;;1.33;0.70;;;24.00;63.70;;;;;;6307989;22;20243;-83
2023/08/13 01:07:51;;;;;;;0.38;0.38;;;24.00;63.80;;;;;;6308825;22;20208;-84
2023/08/13 01:10:28;;;;;;;0.40;0.40;;;24.00;64.00;;;;;;6307761;22;20161;-83
2023/08/13 01:13:02;;;;;;;0.32;0.30;;;23.90;63.90;;;;;;6309484;22;20153;-83
2023/08/13 01:15:35;;;;;;;4.10;1.15;;;24.00;64.00;;;;;;6308178;22;20257;-84
2023/08/13 01:18:04;;;;;;;1.65;0.40;;;24.00;64.30;;;;;;6308244;22;20240;-83
2023/08/13 01:20:35;;;;;;;1.77;1.00;;;23.90;64.50;;;;;;6308580;22;20196;-83
2023/08/13 01:23:05;;;;;;;0.40;0.35;;;23.90;64.90;;;;;;6308444;22;20157;-83
2023/08/13 01:25:34;;;;;;;1.08;0.52;;;23.90;65.00;;;;;;6309261;22;20176;-83
2023/08/13 01:28:09;;;;;;;1.10;0.80;;;23.90;64.90;;;;;;6311397;22;20250;-84
2023/08/13 01:30:42;;;;;;;1.63;0.80;;;23.90;65.20;;;;;;6310082;22;20153;-84
2023/08/13 01:33:15;;;;;;;1.05;0.85;;;23.90;65.50;;;;;;6309443;22;20211;-84
2023/08/13 01:35:44;;;;;;;1.00;0.85;;;23.90;65.30;;;;;;6309543;22;20160;-83
2023/08/13 01:38:16;;;;;;;1.38;0.50;;;23.90;65.90;;;;;;6309478;22;20176;-82
2023/08/13 01:40:44;;;;;;;1.42;0.98;;;23.80;65.60;;;;;;6308211;22;20220;-83
2023/08/13 01:43:13;;;;;;;0.98;0.85;;;23.80;65.50;;;;;;6310151;22;20164;-83
2023/08/13 01:45:41;;;;;;;0.70;0.70;;;23.90;65.60;;;;;;6309029;22;20611;-83
2023/08/13 01:48:11;;;;;;;0.55;0.45;;;23.80;65.50;;;;;;6310089;22;20180;-83
2023/08/13 01:50:40;;;;;;;2.13;0.88;;;23.80;65.40;;;;;;6282374;22;20196;-83
2023/08/13 01:53:09;;;;;;;0.55;0.45;;;23.80;65.50;;;;;;6282298;22;20180;-84
2023/08/13 01:55:40;;;;;;;0.98;0.65;;;23.80;65.70;;;;;;6310572;22;20169;-84
2023/08/13 01:58:10;;;;;;;1.75;0.90;;;23.80;65.80;;;;;;6283424;22;20227;-84
2023/08/13 02:00:39;;;;;;;1.85;0.82;;;23.80;66.20;;;;;;6307049;22;20189;-82
2023/08/13 02:03:07;;;;;;;0.60;0.60;;;23.80;66.30;;;;;;6307692;22;20169;-83
2023/08/13 02:05:36;;;;;;;0.65;0.65;;;23.80;66.20;;;;;;6308758;22;20240;-82
2023/08/13 02:08:05;;;;;;;0.93;0.60;;;23.70;66.10;;;;;;6306070;22;20169;-82
2023/08/13 02:10:34;;;;;;;0.50;0.50;;;23.70;66.10;;;;;;6307620;22;20691;-83
2023/08/13 02:13:04;;;;;;;1.05;0.98;;;23.80;66.50;;;;;;6280963;22;20161;-83
2023/08/13 02:15:33;;;;;;;1.25;1.15;;;23.70;67.20;;;;;;6281436;22;20702;-82
2023/08/13 02:18:01;;;;;;;0.25;0.25;;;23.70;66.60;;;;;;6306464;22;20252;-83
2023/08/13 02:20:30;;;;;;;2.00;1.67;;;23.70;66.80;;;;;;6306842;22;20695;-83
2023/08/13 02:22:58;;;;;;;0.63;0.63;;;23.70;66.70;;;;;;6308297;22;20172;-83
2023/08/13 02:25:27;;;;;;;2.05;1.38;;;23.70;66.80;;;;;;6307883;22;20171;-84
2023/08/13 02:27:56;;;;;;;0.80;0.47;;;23.70;66.60;;;;;;6308368;22;20192;-83
2023/08/13 02:30:25;;;;;;;1.50;1.40;;;23.70;66.80;;;;;;6304241;22;20223;-84
2023/08/13 02:32:54;;;;;;;0.60;0.60;;;23.70;66.70;;;;;;6306255;22;20205;-83
2023/08/13 02:35:23;;;;;;;0.98;0.70;;;23.70;66.80;;;;;;6304370;22;20173;-83
2023/08/13 02:37:52;;;;;;;1.48;0.70;;;23.70;66.60;;;;;;6306984;22;20195;-83
2023/08/13 02:40:20;;;;;;;1.80;1.50;;;23.70;66.50;;;;;;6303243;22;20656;-82
2023/08/13 02:42:49;;;;;;;2.63;1.08;;;23.70;66.40;;;;;;6304210;22;20254;-82
2023/08/13 02:45:18;;;;;;;0.73;0.70;;;23.70;66.20;;;;;;6305218;22;20173;-83
2023/08/13 02:47:48;;;;;;;0.52;0.52;;;23.70;66.20;;;;;;6304456;22;20176;-82
2023/08/13 02:50:17;;;;;;;0.40;0.40;;;23.70;66.20;;;;;;6304606;22;20193;-82
2023/08/13 02:52:46;;;;;;;0.52;0.52;;;23.60;66.20;;;;;;6305944;22;20652;-83
2023/08/13 02:55:14;;;;;;;5.28;1.10;;;23.60;66.30;;;;;;6304928;22;20547;-82
2023/08/13 02:57:43;;;;;;;0.80;0.60;;;23.60;66.20;;;;;;6306512;22;20196;-83
2023/08/13 03:00:31;;;;;;;1.67;0.50;;;23.60;66.10;;;;;;6307010;22;20231;-84
2023/08/13 03:03:01;;;;;;;0.85;0.40;;;23.60;66.10;;;;;;6304975;22;20251;-83
2023/08/13 03:05:32;;;;;;;0.52;0.52;;;23.60;66.10;;;;;;6307181;22;20158;-83
2023/08/13 03:08:00;;;;;;;0.40;0.40;;;23.50;66.30;;;;;;6306798;22;20164;-83
2023/08/13 03:10:29;;;;;;;0.88;0.85;;;23.50;66.30;;;;;;6306110;22;20169;-83
2023/08/13 03:12:58;;;;;;;0.40;0.40;;;23.50;66.30;;;;;;6253197;22;20538;-82
2023/08/13 03:15:27;;;;;;;0.85;0.70;;;23.50;66.40;;;;;;6300516;22;20179;-83
2023/08/13 03:17:55;;;;;;;0.28;0.28;;;23.50;66.50;;;;;;6304264;22;20169;-83
2023/08/13 03:20:25;;;;;;;0.93;0.77;;;23.50;66.50;;;;;;6301950;22;20173;-82
2023/08/13 03:22:54;;;;;;;0.50;0.50;;;23.50;66.50;;;;;;6305270;22;20169;-84
2023/08/13 03:25:22;;;;;;;1.30;0.80;;;23.40;66.50;;;;;;6306913;22;20192;-83
2023/08/13 03:27:51;;;;;;;0.40;0.40;;;23.50;66.60;;;;;;6305447;22;20661;-83
2023/08/13 03:30:20;;;;;;;0.90;0.50;;;23.40;66.60;;;;;;6305526;22;20180;-83
2023/08/13 03:32:48;;;;;;;0.60;0.60;;;23.40;66.90;;;;;;6280285;22;20180;-84
2023/08/13 03:35:17;;;;;;;0.93;0.80;;;23.40;67.10;;;;;;6306844;22;20169;-83
2023/08/13 03:37:47;;;;;;;0.40;0.40;;;23.40;67.40;;;;;;6308885;22;20222;-83
2023/08/13 03:40:16;;;;;;;0.50;0.50;;;23.40;67.50;;;;;;6306614;22;20626;-83
2023/08/13 03:42:45;;;;;;;1.27;0.50;;;23.40;67.70;;;;;;6306440;22;20204;-83
2023/08/13 03:45:13;;;;;;;0.57;0.52;;;23.30;67.90;;;;;;6304952;22;20562;-83
2023/08/13 03:47:42;;;;;;;1.95;0.93;;;23.30;68.10;;;;;;6306592;22;20228;-83
2023/08/13 03:50:10;;;;;;;0.68;0.68;;;23.30;68.30;;;;;;6304707;22;20165;-82
2023/08/13 03:52:39;;;;;;;1.98;1.08;;;23.30;68.40;;;;;;6306426;22;20169;-83
2023/08/13 03:55:10;;;;;;;0.93;0.90;;;23.30;68.70;;;;;;6304950;22;20224;-83
2023/08/13 03:57:38;;;;;;;1.52;1.15;;;23.30;69.00;;;;;;6306996;22;20224;-84
2023/08/13 04:00:08;;;;;;;2.67;1.00;;;23.30;69.20;;;;;;6304020;22;20248;-82
2023/08/13 04:02:39;;;;;;;1.08;1.00;;;23.30;69.60;;;;;;6307115;22;20211;-83
2023/08/13 04:05:09;;;;;;;1.73;1.63;;;23.20;69.50;;;;;;6305292;22;20157;-82
2023/08/13 04:07:37;;;;;;;0.70;0.60;;;23.20;69.50;;;;;;6307203;22;20172;-83
2023/08/13 04:10:09;;;;;;;0.88;0.88;;;23.20;69.70;;;;;;6306914;22;20170;-83
2023/08/13 04:12:38;;;;;;;0.77;0.75;;;23.20;70.00;;;;;;6306321;22;20161;-83
2023/08/13 04:15:08;;;;;;;0.60;0.60;;;23.30;70.00;;;;;;6278416;22;20692;-83
2023/08/13 04:17:36;;;;;;;3.05;1.48;;;23.20;69.80;;;;;;6307718;22;20251;-83
2023/08/13 04:20:07;;;;;;;1.30;0.88;;;23.30;69.90;;;;;;6305775;22;20177;-83
2023/08/13 04:22:36;;;;;;;0.70;0.47;;;23.30;70.10;;;;;;6307366;22;20188;-83
2023/08/13 04:25:06;;;;;;;2.80;1.52;;;23.30;70.70;;;;;;6280388;22;20169;-83
2023/08/13 04:27:36;;;;;;;5.47;1.13;;;23.30;71.00;;;;;;6306174;22;20197;-83
2023/08/13 04:30:06;;;;;;;1.00;0.95;;;23.30;71.40;;;;;;6305757;22;20502;-83
2023/08/13 04:32:38;;;;;;;1.70;1.05;;;23.30;71.70;;;;;;6306313;22;20199;-83
2023/08/13 04:35:08;;;;;;;1.05;0.50;;;23.30;71.90;;;;;;6305696;22;20165;-83
2023/08/13 04:37:36;;;;;;;0.70;0.57;;;23.40;72.40;;;;;;6305926;22;20193;-83
2023/08/13 04:40:06;;;;;;;1.23;1.02;;;23.40;72.60;;;;;;6304203;22;20269;-82
2023/08/13 04:42:36;;;;;;;0.50;0.50;;;23.40;72.40;;;;;;6303939;22;20609;-83
2023/08/13 04:45:06;;;;;;;0.90;0.77;;;23.40;72.10;;;;;;6300047;22;20507;-82
2023/08/13 04:47:34;;;;;;;0.82;0.63;;;23.50;72.40;;;;;;6303289;22;20161;-83
2023/08/13 04:50:03;;;;;;;2.95;0.98;;;23.50;72.30;;;;;;6303100;22;20169;-83
2023/08/13 04:52:32;;;;;;;0.90;0.90;;;23.50;72.20;;;;;;6276662;22;20637;-82
2023/08/13 04:55:00;;;;;;;0.50;0.50;;;23.60;72.90;;;;;;6304361;22;20195;-83
2023/08/13 04:57:29;;;;;;;2.75;0.98;;;23.60;72.50;;;;;;6302680;22;20197;-81
2023/08/13 05:00:01;;;;;;;2.10;1.55;;;23.60;72.40;;;;;;6278834;22;20179;-82
2023/08/13 05:02:30;;;;;;;0.63;0.60;;;23.70;73.00;;;;;;6305658;22;20181;-82
2023/08/13 05:04:58;;;;;;;2.00;1.60;;;23.70;72.70;;;;;;6305695;22;20180;-81
2023/08/13 05:07:27;;;;;;;0.77;0.63;;;23.70;72.60;;;;;;6305219;22;20252;-82
2023/08/13 05:09:55;;;;;;;1.00;0.80;;;23.80;72.50;;;;;;6307038;22;20173;-82
2023/08/13 05:12:24;;;;;;;0.50;0.50;;;23.80;72.20;;;;;;6304527;22;20169;-81
2023/08/13 05:14:53;;;;;;;1.13;0.75;;;23.90;72.30;;;;;;6280161;22;20165;-83
2023/08/13 05:17:23;;;;;;;1.48;1.27;;;23.90;72.30;;;;;;6304963;22;20598;-83
2023/08/13 05:19:52;;;;;;;4.03;1.13;;;23.90;72.40;;;;;;6303318;22;20165;-84
2023/08/13 05:22:21;;;;;;;2.63;0.47;;;23.90;72.30;;;;;;6302241;22;20676;-83
2023/08/13 05:24:49;;;;;;;2.92;1.10;;;24.00;72.40;;;;;;6304415;22;20172;-82
2023/08/13 05:27:20;;;;;;;1.70;0.70;;;24.00;72.30;;;;;;6270602;22;20400;-83
2023/08/13 05:29:48;;;;;;;2.65;1.23;;;24.10;72.10;;;;;;6277917;22;20176;-82
2023/08/13 05:32:18;;;;;;;1.20;1.10;;;24.10;71.90;;;;;;6271737;22;20205;-83
2023/08/13 05:34:48;;;;;;;1.08;0.98;;;24.10;71.60;;;;;;6272521;22;20177;-81
2023/08/13 05:37:16;;;;;;;0.68;0.68;;;24.20;71.00;;;;;;6273194;22;20174;-83
2023/08/13 05:39:44;;;;;;;0.43;0.43;;;24.30;70.40;;;;;;6276786;22;20166;-84
2023/08/13 05:42:13;;;;;;;0.60;0.60;;;24.30;70.20;;;;;;6277249;22;20224;-83
2023/08/13 05:44:42;;;;;;;2.53;1.27;;;24.40;69.80;;;;;;6277919;22;20249;-83
2023/08/13 05:47:11;;;;;;;0.50;0.50;;;24.50;69.50;;;;;;6276055;22;20484;-82
2023/08/13 05:49:42;;;;;;;0.73;0.73;;;24.50;68.90;;;;;;6276225;22;20241;-84
2023/08/13 05:52:12;;;;;;;1.00;0.77;;;24.60;68.80;;;;;;6275902;22;20439;-84
2023/08/13 05:54:41;;;;;;;1.75;0.82;;;24.70;68.60;;;;;;6274315;22;20241;-83
2023/08/13 05:57:10;;;;;;;0.35;0.35;;;24.70;67.70;;;;;;6280529;22;20216;-85
2023/08/13 05:59:40;;;;;;;0.88;0.75;;;24.80;67.50;;;;;;6276689;22;20469;-84
2023/08/13 06:02:08;;;;;;;1.48;1.05;;;24.80;67.00;;;;;;6279664;22;20252;-86
2023/08/13 06:04:40;;;;;;;0.57;0.57;;;24.90;66.20;;;;;;6276435;22;20166;-85
2023/08/13 06:07:09;;;;;;;0.40;0.40;;;25.00;66.50;;;;;;6279367;22;20189;-86
2023/08/13 06:09:39;;;;;;;0.50;0.50;;;25.10;66.60;;;;;;6279922;22;20170;-85
2023/08/13 06:12:09;;;;;;;2.88;0.80;;;25.10;66.20;;;;;;6277511;22;20185;-83
2023/08/13 06:14:38;;;;;;;0.98;0.65;;;25.20;65.50;;;;;;6279989;22;20173;-83
2023/08/13 06:17:09;;;;;;;0.75;0.65;;;25.30;64.40;;;;;;6278850;22;20173;-87
2023/08/13 06:19:43;;;;;;;0.88;0.70;;;25.30;64.00;;;;;;6278825;22;20162;-86
2023/08/13 06:22:12;;;;;;;1.75;0.90;;;25.40;64.40;;;;;;6279979;22;20184;-87
2023/08/13 06:25:06;;;;;;;0.70;0.57;;;25.50;64.50;;;;;;6281315;22;20483;-90
2023/08/13 06:27:36;;;;;;;1.25;0.85;;;25.50;64.10;;;;;;6299505;22;20228;-88
2023/08/13 06:30:07;;;;;;;1.10;0.95;;;25.60;63.40;;;;;;6311600;22;20164;-89
2023/08/13 06:32:38;;;;;;;1.80;0.75;;;25.70;63.20;;;;;;6312803;22;20189;-87
2023/08/13 06:35:08;;;;;;;1.33;0.80;;;25.80;63.30;;;;;;6313084;22;20169;-90
2023/08/13 06:37:36;;;;;;;1.15;0.82;;;25.80;62.40;;;;;;6313855;22;20183;-89
2023/08/13 06:40:26;;;;;;;1.45;0.68;;;25.90;62.40;;;;;;6288891;22;20501;-90
2023/08/13 06:42:55;;;;;;;0.90;0.68;;;26.10;62.30;;;;;;6311820;22;20708;-88
2023/08/13 06:45:31;;;;;;;0.80;0.47;;;26.10;62.30;;;;;;6312832;22;20193;-89
2023/08/13 06:48:03;;;;;;;0.22;0.22;;;26.10;61.70;;;;;;6311338;22;20151;-88
2023/08/13 06:50:32;;;;;;;3.83;0.60;;;26.20;61.70;;;;;;6312705;22;20150;-91
2023/08/13 06:53:08;;;;;;;0.20;0.20;;;26.30;61.10;;;;;;6310705;22;20169;-90
2023/08/13 06:55:38;;;;;;;1.23;1.00;;;26.40;61.30;;;;;;6311414;22;20157;-85
2023/08/13 06:58:07;;;;;;;0.40;0.40;;;26.40;60.50;;;;;;6310738;22;20161;-90
2023/08/13 07:00:37;;;;;;;0.40;0.40;;;26.50;61.20;;;;;;6308515;22;20165;-86
2023/08/13 07:03:08;;;;;;;0.35;0.35;;;26.60;60.30;;;;;;6306820;22;20276;-86
2023/08/13 07:05:37;;;;;;;0.50;0.40;;;26.70;59.80;;;;;;6309323;22;20171;-87
2023/08/13 07:08:06;;;;;;;0.68;0.68;;;26.70;60.00;;;;;;6282076;22;20169;-86
2023/08/13 07:10:35;;;;;;;0.60;0.40;;;26.80;59.90;;;;;;6309715;22;20527;-86
2023/08/13 07:13:08;;;;;;;0.40;0.40;;;26.80;59.20;;;;;;6309551;22;20169;-86
2023/08/13 07:15:36;;;;;;;1.27;0.70;;;26.90;59.00;;;;;;6308844;22;20159;-86
2023/08/13 07:18:05;;;;;;;0.30;0.30;;;27.00;58.60;;;;;;6308864;22;20177;-85
2023/08/13 07:20:34;;;;;;;0.45;0.40;;;27.00;58.30;;;;;;6281943;22;20165;-86
2023/08/13 07:23:04;;;;;;;0.70;0.70;;;27.00;58.20;;;;;;6309485;22;20189;-86
2023/08/13 07:25:38;;;;;;;0.20;0.20;;;27.10;57.80;;;;;;6309200;22;20203;-86
2023/08/13 07:28:08;;;;;;;0.60;0.60;;;27.20;58.20;;;;;;6281908;22;20193;-87
2023/08/13 07:30:38;;;;;;;1.00;0.70;;;27.20;58.10;;;;;;6309129;22;20195;-86
2023/08/13 07:33:06;;;;;;;0.50;0.50;;;27.30;58.10;;;;;;6309348;22;20623;-87
2023/08/13 07:35:35;;;;;;;0.30;0.30;;;27.30;57.70;;;;;;6309173;22;20481;-84
2023/08/13 07:38:04;;;;;;;0.63;0.63;;;27.40;57.40;;;;;;6309919;22;20196;-87
2023/08/13 07:40:33;;;;;;;0.70;0.70;;;27.40;57.20;;;;;;6282183;22;20192;-86
2023/08/13 07:43:02;;;;;;;0.30;0.30;;;27.50;56.70;;;;;;6310037;22;20169;-87
2023/08/13 07:45:35;;;;;;;0.40;0.40;;;27.50;56.70;;;;;;6312035;22;20169;-87
2023/08/13 07:48:05;;;;;;;1.05;1.00;;;27.60;56.70;;;;;;6309935;22;20168;-85
2023/08/13 07:50:34;;;;;;;0.20;0.20;;;27.70;56.90;;;;;;6309833;22;20205;-85
2023/08/13 07:53:04;;;;;;;1.20;0.57;;;27.70;56.60;;;;;;6281370;22;20171;-86
2023/08/13 07:55:33;;;;;;;0.30;0.30;;;27.80;56.20;;;;;;6308064;22;20157;-88
2023/08/13 07:58:02;;;;;;;0.47;0.38;;;27.80;56.30;;;;;;6308233;22;20168;-84
2023/08/13 08:00:32;;;;;;;0.77;0.70;;;27.80;55.70;;;;;;6307328;22;20633;-87
2023/08/13 08:03:00;;;;;;;0.43;0.43;;;27.90;55.60;;;;;;6308574;22;20216;-87
2023/08/13 08:05:29;;;;;;;0.40;0.40;;;27.90;55.80;;;;;;6308523;22;20207;-85
2023/08/13 08:07:58;;;;;;;0.60;0.60;;;28.00;55.40;;;;;;6309937;22;20169;-85
2023/08/13 08:10:26;;;;;;;0.30;0.30;;;28.00;55.10;;;;;;6308613;22;20169;-85
2023/08/13 08:12:55;;;;;;;0.40;0.40;;;28.10;55.20;;;;;;6308927;22;20208;-85
2023/08/13 08:15:25;;;;;;;1.08;0.75;;;28.10;55.10;;;;;;6308507;22;20264;-86
2023/08/13 08:17:55;;;;;;;0.52;0.52;;;28.20;55.00;;;;;;6310000;22;20624;-86
2023/08/13 08:20:23;;;;;;;0.82;0.40;;;28.20;54.60;;;;;;6307502;22;20169;-85
2023/08/13 08:22:52;;;;;;;0.30;0.30;;;28.20;54.10;;;;;;6309097;22;20554;-86
2023/08/13 08:25:21;;;;;;;0.40;0.40;;;28.30;54.20;;;;;;6308356;22;20714;-86
2023/08/13 08:27:49;;;;;;;0.55;0.50;;;28.30;54.10;;;;;;6308444;22;20272;-86
2023/08/13 08:30:18;;;;;;;2.65;0.73;;;28.40;53.90;;;;;;6309999;22;20177;-87
2023/08/13 08:32:47;;;;;;;1.05;0.60;;;28.40;53.60;;;;;;6310464;22;20167;-87
2023/08/13 08:35:17;;;;;;;1.27;0.55;;;28.40;53.70;;;;;;6309130;22;20244;-87
2023/08/13 08:37:46;;;;;;;0.40;0.40;;;28.50;53.40;;;;;;6310743;22;20303;-86
2023/08/13 08:40:15;;;;;;;1.65;1.02;;;28.50;52.70;;;;;;6309440;22;20162;-86
2023/08/13 08:42:44;;;;;;;0.60;0.40;;;28.50;52.80;;;;;;6310570;22;20165;-87
2023/08/13 08:45:14;;;;;;;0.20;0.20;;;28.60;52.90;;;;;;6307832;22;20660;-86
2023/08/13 08:47:44;;;;;;;1.10;0.95;;;28.60;52.60;;;;;;6308586;22;20171;-85
2023/08/13 08:50:13;;;;;;;1.60;0.70;;;28.70;52.70;;;;;;6308751;22;20165;-88
2023/08/13 08:52:43;;;;;;;0.40;0.40;;;28.70;52.40;;;;;;6309576;22;20555;-87
2023/08/13 08:55:12;;;;;;;1.27;0.52;;;28.80;52.30;;;;;;6308545;22;20599;-86
2023/08/13 08:57:41;;;;;;;0.28;0.28;;;28.80;52.10;;;;;;6308976;22;20550;-89
2023/08/13 09:00:10;;;;;;;1.85;0.80;;;28.80;52.20;;;;;;6307745;22;20252;-87
2023/08/13 09:02:39;;;;;;;0.32;0.32;;;28.90;52.40;;;;;;6309930;22;20161;-86
2023/08/13 09:05:08;;;;;;;0.20;0.20;;;28.90;52.40;;;;;;6309036;22;20675;-88
2023/08/13 09:07:42;;;;;;;0.40;0.40;;;29.00;52.60;;;;;;6309670;22;20222;-87
2023/08/13 09:10:12;;;;;;;0.30;0.30;;;29.00;52.30;;;;;;6308325;22;20173;-87
2023/08/13 09:12:42;;;;;;;1.20;0.40;;;29.10;50.80;;;;;;6310250;22;20275;-87
2023/08/13 09:15:12;;;;;;;1.05;0.65;;;29.10;50.80;;;;;;6310919;22;20165;-88
2023/08/13 09:17:41;;;;;;;2.03;0.68;;;29.10;51.50;;;;;;6310901;22;20207;-88
2023/08/13 09:20:16;;;;;;;0.22;0.22;;;29.20;51.20;;;;;;6310350;22;20169;-87
2023/08/13 09:22:45;;;;;;;0.73;0.60;;;29.20;51.30;;;;;;6310956;22;20152;-85
2023/08/13 09:25:16;;;;;;;0.32;0.32;;;29.30;50.70;;;;;;6309283;22;20224;-88
2023/08/13 09:27:46;;;;;;;0.28;0.20;;;29.30;50.10;;;;;;6284494;22;20192;-86
2023/08/13 09:30:21;;;;;;;1.08;0.85;;;29.30;49.80;;;;;;6311701;22;20165;-86
2023/08/13 09:32:50;;;;;;;0.20;0.20;;;29.40;49.50;;;;;;6311522;22;20172;-88
2023/08/13 09:35:19;;;;;;;0.50;0.50;;;29.40;49.90;;;;;;6311198;22;20165;-87
2023/08/13 09:37:48;;;;;;;0.30;0.30;;;29.50;50.30;;;;;;6312585;22;20161;-88
2023/08/13 09:40:18;;;;;;;0.77;0.60;;;29.50;50.30;;;;;;6309791;22;20579;-87
2023/08/13 09:42:47;;;;;;;0.40;0.40;;;29.60;50.30;;;;;;6309227;22;20537;-87
2023/08/13 09:45:18;;;;;;;2.38;0.60;;;29.70;50.30;;;;;;6310112;22;20189;-88
2023/08/13 09:47:49;;;;;;;0.63;0.45;;;29.70;50.20;;;;;;6311177;22;20157;-88
2023/08/13 09:50:19;;;;;;;0.55;0.55;;;29.80;50.00;;;;;;6310457;22;20153;-88
2023/08/13 09:52:48;;;;;;;0.47;0.47;;;29.90;50.00;;;;;;6311876;22;20521;-88
2023/08/13 09:55:21;;;;;;;1.05;0.85;;;29.90;49.80;;;;;;6309336;22;20165;-87
2023/08/13 09:57:53;;;;;;;0.38;0.38;;;30.00;49.90;;;;;;6309784;22;20199;-88
2023/08/13 10:00:22;;;;;;;0.95;0.73;;;30.10;49.80;;;;;;6307694;22;20897;-85
2023/08/13 10:02:52;;;;;;;1.05;0.77;;;30.20;49.90;;;;;;6309293;22;20686;-87
2023/08/13 10:05:21;;;;;;;0.85;0.70;;;30.20;49.10;;;;;;6308018;22;20554;-86
2023/08/13 10:07:50;;;;;;;0.30;0.30;;;30.20;49.10;;;;;;6307661;22;20164;-86
2023/08/13 10:10:21;;;;;;;0.43;0.40;;;30.20;49.00;;;;;;6307963;22;20590;-87
2023/08/13 10:12:50;;;;;;;1.65;0.40;;;30.20;48.90;;;;;;6307985;22;20172;-88
2023/08/13 10:15:20;;;;;;;0.47;0.47;;;30.20;49.30;;;;;;6308764;22;20161;-86
2023/08/13 10:17:50;;;;;;;0.60;0.60;;;30.30;48.40;;;;;;6309481;22;20534;-86
2023/08/13 10:20:19;;;;;;;0.35;0.35;;;30.30;48.40;;;;;;6308639;22;20681;-87
2023/08/13 10:22:47;;;;;;;0.47;0.47;;;30.40;48.70;;;;;;6308051;22;20208;-86
2023/08/13 10:25:29;;;;;;;0.77;0.57;;;30.50;48.60;;;;;;6308378;22;20208;-86
2023/08/13 10:27:58;;;;;;;0.55;0.55;;;30.60;48.60;;;;;;6308416;22;20243;-87
2023/08/13 10:30:27;;;;;;;0.47;0.47;;;30.70;48.50;;;;;;6308322;22;20165;-86
2023/08/13 10:32:59;;;;;;;0.50;0.40;;;30.70;48.50;;;;;;6308803;22;20728;-87
2023/08/13 10:35:31;;;;;;;0.95;0.45;;;30.80;48.50;;;;;;6308756;22;20192;-88
2023/08/13 10:38:02;;;;;;;1.25;0.85;;;30.90;48.00;;;;;;6310559;22;20227;-87
2023/08/13 10:40:33;;;;;;;0.30;0.30;;;31.00;48.10;;;;;;6309598;22;20184;-86
2023/08/13 10:43:01;;;;;;;0.32;0.32;;;31.10;47.80;;;;;;6309587;22;20154;-87
2023/08/13 10:45:32;;;;;;;0.32;0.30;;;31.10;47.50;;;;;;6311273;22;20201;-87
2023/08/13 10:48:02;;;;;;;1.45;0.73;;;31.10;47.60;;;;;;6310414;22;20172;-88
2023/08/13 10:50:33;;;;;;;0.30;0.30;;;31.10;47.90;;;;;;6310857;22;20165;-88
2023/08/13 10:53:08;;;;;;;0.40;0.40;;;31.20;47.60;;;;;;6304323;22;20593;-90
2023/08/13 10:55:41;;;;;;;0.47;0.47;;;31.20;47.70;;;;;;6311731;22;20165;-91
2023/08/13 10:58:24;;;;;;;0.80;0.32;;;31.20;47.90;;;;;;6286002;22;20191;-92
2023/08/13 11:00:57;;;;;;;0.30;0.25;;;31.30;48.20;;;;;;6309252;22;20161;-90
2023/08/13 11:03:30;;;;;;;0.63;0.40;;;31.30;47.40;;;;;;6312040;22;20165;-89
2023/08/13 11:05:58;;;;;;;0.98;0.32;;;31.40;47.60;;;;;;6310015;22;20193;-86
2023/08/13 11:08:27;;;;;;;0.55;0.55;;;31.40;46.80;;;;;;6308548;22;20154;-88
2023/08/13 11:11:16;;;;;;;0.52;0.52;;;31.30;46.80;;;;;;6310125;22;20165;-89
2023/08/13 11:13:45;;;;;;;2.13;0.77;;;31.30;46.70;;;;;;6313146;22;20149;-89
2023/08/13 11:16:14;;;;;;;1.55;0.60;;;31.30;46.70;;;;;;6310156;22;20169;-88
2023/08/13 11:18:45;;;;;;;0.68;0.60;;;31.20;46.70;;;;;;6311353;22;20165;-89
2023/08/13 11:21:13;;;;;;;0.77;0.68;;;31.30;46.90;;;;;;6308998;22;20686;-88
2023/08/13 11:23:42;;;;;;;0.40;0.40;;;31.30;46.80;;;;;;6309329;22;20498;-87
2023/08/13 11:26:11;;;;;;;0.93;0.80;;;31.40;47.00;;;;;;6284208;22;20197;-89
2023/08/13 11:28:42;;;;;;;0.40;0.40;;;31.40;47.10;;;;;;6310447;22;20185;-88
2023/08/13 11:31:13;;;;;;;0.40;0.40;;;31.50;47.30;;;;;;6309375;22;20154;-87
2023/08/13 11:33:42;;;;;;;0.45;0.30;;;31.60;47.10;;;;;;6283447;22;20204;-89
2023/08/13 11:36:11;;;;;;;0.55;0.52;;;31.60;47.20;;;;;;6311458;22;20173;-88
2023/08/13 11:38:40;;;;;;;1.25;0.73;;;31.70;46.90;;;;;;6310719;22;20172;-91
2023/08/13 11:41:12;;;;;;;0.77;0.63;;;31.80;46.60;;;;;;6311271;22;20166;-89
2023/08/13 11:43:43;;;;;;;0.40;0.40;;;31.80;46.70;;;;;;6307740;22;20176;-89
2023/08/13 11:46:11;;;;;;;1.30;1.20;;;31.90;46.70;;;;;;6309162;22;20193;-89
2023/08/13 11:48:41;;;;;;;0.40;0.40;;;31.90;45.70;;;;;;6310759;22;20497;-89
2023/08/13 11:51:15;;;;;;;0.50;0.35;;;31.90;45.90;;;;;;6306708;22;20161;-88
2023/08/13 11:53:47;;;;;;;0.82;0.40;;;32.00;46.10;;;;;;6309527;22;20172;-90
2023/08/13 11:56:17;;;;;;;0.60;0.52;;;32.10;45.50;;;;;;6309207;22;20165;-88
2023/08/13 11:58:50;;;;;;;0.30;0.30;;;32.00;44.30;;;;;;6310742;22;20192;-87
2023/08/13 12:01:19;;;;;;;0.90;0.75;;;32.10;44.70;;;;;;6311938;22;20165;-90
2023/08/13 12:03:48;;;;;;;0.30;0.30;;;32.20;45.00;;;;;;6312749;22;20436;-89
2023/08/13 12:06:17;;;;;;;0.50;0.50;;;32.20;45.00;;;;;;6309481;22;20272;-88
2023/08/13 12:08:46;;;;;;;1.85;1.30;;;32.20;44.40;;;;;;6308416;22;20207;-90
2023/08/13 12:11:16;;;;;;;2.28;1.48;;;32.20;43.60;;;;;;6310778;22;20165;-91
2023/08/13 12:13:49;;;;;;;0.40;0.40;;;32.20;43.70;;;;;;6310968;22;20164;-90
2023/08/13 12:16:17;;;;;;;4.65;1.30;;;32.30;43.60;;;;;;6309606;22;20165;-91
2023/08/13 12:18:47;;;;;;;0.40;0.38;;;32.30;43.40;;;;;;6287389;22;20173;-89
2023/08/13 12:21:17;;;;;;;0.68;0.65;;;32.30;43.30;;;;;;6285851;22;20174;-92
2023/08/13 12:23:46;;;;;;;1.77;0.50;;;32.40;43.60;;;;;;6316110;22;20239;-91
2023/08/13 12:26:15;;;;;;;0.85;0.63;;;32.40;43.90;;;;;;6311573;22;20189;-89
2023/08/13 12:28:47;;;;;;;0.32;0.32;;;32.40;43.90;;;;;;6284956;22;20193;-90
2023/08/13 12:31:18;;;;;;;0.70;0.70;;;32.40;43.80;;;;;;6311058;22;20218;-89
2023/08/13 12:33:48;;;;;;;0.50;0.43;;;32.40;43.70;;;;;;6308706;22;20162;-90
2023/08/13 12:36:16;;;;;;;2.80;0.55;;;32.40;43.90;;;;;;6259051;22;20226;-88
2023/08/13 12:38:45;;;;;;;0.38;0.32;;;32.30;43.80;;;;;;6309266;22;20176;-88
2023/08/13 12:41:14;;;;;;;0.30;0.30;;;32.20;44.00;;;;;;6308296;22;20219;-87
2023/08/13 12:43:48;;;;;;;0.30;0.30;;;32.30;44.20;;;;;;6309416;22;20176;-87
2023/08/13 12:46:18;;;;;;;0.70;0.50;;;32.30;44.30;;;;;;6308831;22;20499;-87
2023/08/13 12:48:47;;;;;;;0.40;0.40;;;32.40;44.40;;;;;;6281961;22;20196;-88
2023/08/13 12:51:16;;;;;;;0.68;0.63;;;32.30;43.50;;;;;;6306618;22;20179;-88
2023/08/13 12:53:46;;;;;;;0.88;0.65;;;32.40;43.80;;;;;;6282164;22;20180;-87
2023/08/13 12:56:17;;;;;;;0.93;0.68;;;32.40;43.60;;;;;;6310193;22;20223;-88
2023/08/13 12:58:46;;;;;;;0.90;0.90;;;32.40;43.80;;;;;;6307866;22;20169;-87
2023/08/13 13:01:15;;;;;;;1.13;0.95;;;32.40;43.10;;;;;;6307687;22;20183;-87